Time;durP1;ratioP1;P1;durP2;ratioP2;P2;SDS_P1;SDS_P2;PMS_P1;PMS_P2;Temp;Humidity;BMP_temperature;BMP_pressure;BME280_temperature;BME280_humidity;BME280_pressure;Samples;Min_cycle;Max_cycle;Signal;HPM_P1;HPM_P2
2022/04/28 00:00:10;;;;;;;33.93;25.10;;;5.40;99.90;;;;;;5054354;28;20103;-86
2022/04/28 00:02:36;;;;;;;31.30;24.13;;;5.40;99.90;;;;;;5054540;28;20427;-86
2022/04/28 00:05:03;;;;;;;29.50;22.83;;;5.40;99.90;;;;;;5032908;28;20111;-85
2022/04/28 00:07:29;;;;;;;30.60;23.50;;;5.40;99.90;;;;;;5034095;28;20025;-85
2022/04/28 00:09:54;;;;;;;31.93;24.07;;;5.40;99.90;;;;;;5034185;28;20489;-86
2022/04/28 00:12:20;;;;;;;28.87;21.63;;;5.40;99.90;;;;;;5032537;28;20035;-86
2022/04/28 00:14:46;;;;;;;29.20;21.97;;;5.40;99.90;;;;;;5034329;28;20347;-85
2022/04/28 00:17:11;;;;;;;29.60;21.97;;;5.40;99.90;;;;;;5032822;28;20026;-86
2022/04/28 00:19:37;;;;;;;29.93;22.60;;;5.30;99.90;;;;;;5033878;28;20072;-85
2022/04/28 00:22:03;;;;;;;32.80;22.63;;;5.30;99.90;;;;;;5034262;28;20104;-86
2022/04/28 00:24:29;;;;;;;29.03;21.43;;;5.30;99.90;;;;;;5033244;28;20051;-86
2022/04/28 00:26:54;;;;;;;30.93;21.93;;;5.20;99.90;;;;;;5034075;28;20093;-86
2022/04/28 00:29:21;;;;;;;29.53;22.60;;;5.20;99.90;;;;;;5033978;28;20460;-86
2022/04/28 00:31:46;;;;;;;32.13;21.73;;;5.20;99.90;;;;;;5033978;28;20049;-86
2022/04/28 00:34:12;;;;;;;29.37;22.63;;;5.10;99.90;;;;;;5031531;28;20075;-85
2022/04/28 00:36:38;;;;;;;28.97;22.20;;;5.10;99.90;;;;;;5033275;28;20033;-85
2022/04/28 00:39:03;;;;;;;24.97;19.73;;;5.10;99.90;;;;;;5033722;28;20025;-85
2022/04/28 00:41:29;;;;;;;22.53;17.40;;;5.00;99.90;;;;;;5033532;28;20172;-85
2022/04/28 00:43:55;;;;;;;25.07;19.10;;;5.00;99.90;;;;;;5031928;28;20057;-85
2022/04/28 00:46:21;;;;;;;25.60;19.27;;;4.90;99.90;;;;;;5032227;28;20029;-85
2022/04/28 00:51:34;;;;;;;30.90;22.20;;;4.80;99.90;;;;;;5033754;28;20389;-85
2022/04/28 00:54:02;;;;;;;27.83;21.83;;;4.80;99.90;;;;;;5034017;28;20363;-85
2022/04/28 00:56:28;;;;;;;31.27;23.20;;;4.80;99.90;;;;;;5032506;28;20075;-85
2022/04/28 00:58:55;;;;;;;34.77;23.63;;;4.80;99.90;;;;;;5033753;28;20109;-85
2022/04/28 01:01:21;;;;;;;31.70;22.73;;;4.80;99.90;;;;;;5033922;28;20474;-85
2022/04/28 01:03:47;;;;;;;28.67;22.20;;;4.80;99.90;;;;;;5033301;28;20132;-84
2022/04/28 01:06:14;;;;;;;32.77;23.63;;;4.80;99.90;;;;;;5047477;28;20053;-84
2022/04/28 01:08:40;;;;;;;34.70;25.30;;;4.70;99.90;;;;;;5053749;28;20083;-86
2022/04/28 01:11:07;;;;;;;31.87;24.03;;;4.70;99.90;;;;;;5053738;28;20037;-84
2022/04/28 01:13:33;;;;;;;31.83;24.13;;;4.70;99.90;;;;;;5053753;28;20478;-85
2022/04/28 01:15:59;;;;;;;30.80;24.63;;;4.70;99.90;;;;;;5053366;28;20112;-85
2022/04/28 01:18:25;;;;;;;31.07;24.10;;;4.70;99.90;;;;;;5053271;28;20107;-85
2022/04/28 01:20:51;;;;;;;30.63;23.93;;;4.60;99.90;;;;;;5052831;28;20021;-85
2022/04/28 01:23:18;;;;;;;29.43;21.90;;;4.60;99.90;;;;;;5053080;28;20031;-84
2022/04/28 01:25:44;;;;;;;25.67;19.50;;;4.60;99.90;;;;;;5052904;28;20021;-84
2022/04/28 01:28:10;;;;;;;29.77;22.00;;;4.60;99.90;;;;;;5052891;28;20107;-85
2022/04/28 01:30:37;;;;;;;25.77;19.67;;;4.60;99.90;;;;;;5052662;28;20111;-85
2022/04/28 01:33:04;;;;;;;28.70;21.47;;;4.60;99.90;;;;;;5052614;28;20049;-85
2022/04/28 01:35:30;;;;;;;27.83;20.30;;;4.50;99.90;;;;;;5035034;28;20033;-85
2022/04/28 01:37:55;;;;;;;27.57;21.17;;;4.50;99.90;;;;;;5052682;28;20064;-84
2022/04/28 01:40:21;;;;;;;29.40;20.23;;;4.50;99.90;;;;;;5052511;28;20440;-84
2022/04/28 01:42:47;;;;;;;27.80;20.70;;;4.50;99.90;;;;;;5052536;28;20040;-85
2022/04/28 01:45:15;;;;;;;25.90;20.60;;;4.40;99.90;;;;;;5052585;28;20462;-84
2022/04/28 01:47:41;;;;;;;24.67;18.40;;;4.40;99.90;;;;;;5052571;28;20044;-84
2022/04/28 01:50:10;;;;;;;25.03;19.07;;;4.30;99.90;;;;;;5052629;28;20105;-84
2022/04/28 01:55:22;;;;;;;22.93;18.07;;;4.20;99.90;;;;;;5052550;28;20231;-84
2022/04/28 01:57:48;;;;;;;23.90;18.13;;;4.20;99.90;;;;;;5051216;28;20120;-79
2022/04/28 02:00:14;;;;;;;25.27;18.93;;;4.10;99.90;;;;;;5050955;28;20103;-79
2022/04/28 02:02:41;;;;;;;26.53;19.13;;;4.10;99.90;;;;;;5050883;28;20125;-79
2022/04/28 02:05:08;;;;;;;27.63;19.87;;;4.00;99.90;;;;;;5050731;28;20107;-79
2022/04/28 02:07:35;;;;;;;26.87;19.67;;;4.10;99.90;;;;;;5050367;28;20132;-79
2022/04/28 02:10:02;;;;;;;26.80;19.43;;;4.00;99.90;;;;;;5050185;28;20115;-79
2022/04/28 02:12:28;;;;;;;30.47;19.20;;;4.00;99.90;;;;;;5050249;28;20025;-79
2022/04/28 02:14:54;;;;;;;23.87;18.30;;;3.90;99.90;;;;;;5050430;28;20068;-79
2022/04/28 02:17:25;;;;;;;22.33;17.43;;;3.90;99.90;;;;;;5050647;28;20029;-85
2022/04/28 02:19:51;;;;;;;25.13;18.73;;;3.90;99.90;;;;;;5034618;28;20035;-85
2022/04/28 02:22:16;;;;;;;23.07;17.70;;;3.90;99.90;;;;;;5052807;28;20048;-85
2022/04/28 02:24:43;;;;;;;22.23;16.63;;;3.80;99.90;;;;;;5052381;28;20369;-85
2022/04/28 02:27:09;;;;;;;18.87;15.03;;;3.80;99.90;;;;;;5052341;28;20469;-85
2022/04/28 02:29:35;;;;;;;20.33;16.10;;;3.70;99.90;;;;;;5052394;28;20082;-85
2022/04/28 02:32:00;;;;;;;20.77;16.03;;;3.60;99.90;;;;;;5052294;28;20029;-85
2022/04/28 02:34:26;;;;;;;24.47;17.83;;;3.60;99.90;;;;;;5052740;28;20032;-85
2022/04/28 02:36:52;;;;;;;24.30;17.67;;;3.60;99.90;;;;;;5052219;28;20029;-85
2022/04/28 02:39:18;;;;;;;26.90;17.87;;;3.50;99.90;;;;;;5052061;28;20029;-86
2022/04/28 02:41:49;;;;;;;27.47;17.90;;;3.50;99.90;;;;;;5052287;28;20025;-84
2022/04/28 02:44:15;;;;;;;26.10;18.23;;;3.50;99.90;;;;;;5052231;28;20032;-84
2022/04/28 02:46:45;;;;;;;29.97;18.53;;;3.50;99.90;;;;;;5052538;28;20021;-85
2022/04/28 02:49:12;;;;;;;23.83;18.20;;;3.50;99.90;;;;;;5052234;28;20385;-85
2022/04/28 02:51:38;;;;;;;27.00;18.10;;;3.40;99.90;;;;;;5052091;28;20027;-85
2022/04/28 02:54:05;;;;;;;23.57;17.40;;;3.40;99.90;;;;;;5051778;28;20508;-84
2022/04/28 02:56:30;;;;;;;27.23;18.03;;;3.40;99.90;;;;;;5050428;28;20453;-84
2022/04/28 02:58:56;;;;;;;24.67;18.17;;;3.30;99.90;;;;;;5053256;28;20095;-84
2022/04/28 03:01:23;;;;;;;23.63;17.60;;;3.30;99.90;;;;;;5054566;28;20025;-84
2022/04/28 03:03:49;;;;;;;23.83;17.93;;;3.20;99.90;;;;;;5053101;28;20021;-84
2022/04/28 03:11:44;;;;;;;27.03;18.43;;;3.10;99.90;;;;;;5039755;28;20397;-84
2022/04/28 03:14:10;;;;;;;25.20;18.53;;;3.10;99.90;;;;;;5035380;28;20034;-84
2022/04/28 03:16:36;;;;;;;27.87;19.23;;;3.10;99.90;;;;;;5035194;28;20421;-84
2022/04/28 03:19:02;;;;;;;22.70;17.20;;;3.10;99.90;;;;;;5055110;28;20071;-84
2022/04/28 03:21:28;;;;;;;24.30;17.53;;;3.00;99.90;;;;;;5055094;28;20029;-84
2022/04/28 03:23:53;;;;;;;23.23;16.17;;;3.00;99.90;;;;;;5054924;28;20017;-84
2022/04/28 03:26:19;;;;;;;21.17;15.57;;;3.00;99.90;;;;;;5048317;28;20454;-85
2022/04/28 03:28:45;;;;;;;21.33;15.63;;;2.90;99.90;;;;;;5054844;28;20029;-85
2022/04/28 03:31:10;;;;;;;22.30;16.03;;;2.90;99.90;;;;;;5055198;28;20029;-85
2022/04/28 03:33:36;;;;;;;22.90;16.27;;;2.90;99.90;;;;;;5054710;28;20033;-84
2022/04/28 03:36:02;;;;;;;22.07;15.97;;;2.80;99.90;;;;;;5053469;28;20082;-85
2022/04/28 03:38:27;;;;;;;21.43;16.37;;;2.80;99.90;;;;;;5054802;28;20025;-85
2022/04/28 03:40:53;;;;;;;23.83;16.13;;;2.80;99.90;;;;;;5053530;28;20086;-85
2022/04/28 03:43:19;;;;;;;21.57;15.73;;;2.80;99.90;;;;;;5054729;28;20481;-85
2022/04/28 03:45:44;;;;;;;23.53;16.50;;;2.70;99.90;;;;;;5054604;28;20503;-85
2022/04/28 03:48:10;;;;;;;22.53;15.77;;;2.70;99.90;;;;;;5054423;28;20065;-85
2022/04/28 03:50:37;;;;;;;25.37;16.87;;;2.70;99.90;;;;;;5054355;28;20033;-86
2022/04/28 03:53:03;;;;;;;23.53;16.23;;;2.70;99.90;;;;;;5054327;28;20032;-85
2022/04/28 03:55:29;;;;;;;22.23;16.27;;;2.70;99.90;;;;;;5054218;28;20032;-85
2022/04/28 03:57:54;;;;;;;25.90;15.73;;;2.60;99.90;;;;;;5053177;28;20462;-85
2022/04/28 04:00:21;;;;;;;22.63;15.07;;;2.60;99.90;;;;;;5053921;28;20044;-85
2022/04/28 04:02:48;;;;;;;21.13;15.23;;;2.60;99.90;;;;;;5054452;28;20765;-85
2022/04/28 04:05:13;;;;;;;24.67;15.20;;;2.60;99.90;;;;;;5054005;28;20048;-85
2022/04/28 04:07:39;;;;;;;22.67;14.90;;;2.60;99.90;;;;;;5054273;28;20378;-84
2022/04/28 04:10:13;;;;;;;23.77;14.93;;;2.60;99.90;;;;;;5053847;28;20025;-85
2022/04/28 04:12:39;;;;;;;23.03;15.23;;;2.60;99.90;;;;;;5034118;28;20503;-85
2022/04/28 04:15:06;;;;;;;25.67;15.43;;;2.60;99.90;;;;;;5034385;28;20061;-83
2022/04/28 04:17:38;;;;;;;27.50;15.57;;;2.50;99.90;;;;;;5034241;28;20037;-81
2022/04/28 04:20:04;;;;;;;25.57;16.80;;;2.60;99.90;;;;;;5051430;28;20053;-81
2022/04/28 04:22:29;;;;;;;23.87;17.20;;;2.50;99.90;;;;;;5043155;28;20054;-80
2022/04/28 04:24:55;;;;;;;25.30;17.20;;;2.50;99.90;;;;;;5051052;28;20036;-80
2022/04/28 04:27:21;;;;;;;24.33;16.97;;;2.60;99.90;;;;;;5047719;28;20027;-80
2022/04/28 04:29:46;;;;;;;25.47;16.00;;;2.60;99.90;;;;;;5043339;28;20416;-80
2022/04/28 04:32:18;;;;;;;25.63;15.90;;;2.60;99.90;;;;;;5044243;28;20033;-80
2022/04/28 04:34:51;;;;;;;26.67;16.67;;;2.60;99.90;;;;;;5041976;28;20127;-80
2022/04/28 04:37:16;;;;;;;29.07;20.67;;;2.60;99.90;;;;;;5044553;28;20090;-81
2022/04/28 04:39:42;;;;;;;31.40;19.67;;;2.60;99.90;;;;;;5033105;28;20051;-81
2022/04/28 04:42:08;;;;;;;33.63;21.07;;;2.70;99.90;;;;;;5044474;28;20017;-80
2022/04/28 04:44:34;;;;;;;31.67;20.57;;;2.70;99.90;;;;;;5047218;28;20087;-80
2022/04/28 04:47:00;;;;;;;31.23;19.90;;;2.70;99.90;;;;;;5034835;28;20025;-80
2022/04/28 04:49:26;;;;;;;30.30;18.97;;;2.70;99.90;;;;;;5039427;28;20047;-80
2022/04/28 04:51:52;;;;;;;32.83;19.43;;;2.80;99.90;;;;;;5039976;28;20494;-80
2022/04/28 04:54:18;;;;;;;32.43;17.13;;;2.90;99.90;;;;;;5042364;28;20055;-81
2022/04/28 04:56:43;;;;;;;26.40;18.07;;;3.00;99.90;;;;;;5046872;28;20013;-80
2022/04/28 04:59:09;;;;;;;26.93;17.83;;;3.20;99.90;;;;;;5047414;28;20029;-81
2022/04/28 05:01:35;;;;;;;23.37;16.50;;;3.20;99.90;;;;;;5050195;28;20021;-81
2022/04/28 05:04:00;;;;;;;24.07;16.27;;;3.20;99.90;;;;;;5045522;28;20060;-80
2022/04/28 05:06:26;;;;;;;23.67;15.47;;;3.20;99.90;;;;;;5047451;28;20048;-81
2022/04/28 05:08:52;;;;;;;26.23;14.43;;;3.20;99.90;;;;;;5043904;28;20124;-80
2022/04/28 05:11:18;;;;;;;19.40;13.17;;;3.30;99.90;;;;;;5044744;28;20111;-80
2022/04/28 05:13:44;;;;;;;18.77;14.33;;;3.30;99.90;;;;;;5044964;28;20103;-80
2022/04/28 05:16:10;;;;;;;19.37;14.27;;;3.30;99.90;;;;;;5047167;28;20025;-81
2022/04/28 05:18:36;;;;;;;21.27;15.03;;;3.30;99.90;;;;;;5046233;28;20047;-81
2022/04/28 05:21:01;;;;;;;24.47;16.07;;;3.40;99.90;;;;;;5043208;28;20032;-80
2022/04/28 05:23:27;;;;;;;23.90;15.57;;;3.50;99.90;;;;;;5043390;28;20381;-81
2022/04/28 05:25:53;;;;;;;28.87;16.73;;;3.50;99.90;;;;;;5048536;28;20373;-81
2022/04/28 05:28:18;;;;;;;25.37;17.27;;;3.60;99.90;;;;;;5051237;28;20029;-85
2022/04/28 05:30:44;;;;;;;22.53;16.50;;;3.60;99.90;;;;;;5055052;28;20082;-83
2022/04/28 05:33:09;;;;;;;21.17;16.33;;;3.70;99.90;;;;;;5056589;28;20093;-83
2022/04/28 05:35:39;;;;;;;23.40;18.13;;;3.80;99.90;;;;;;5055293;28;20076;-83
2022/04/28 05:38:07;;;;;;;22.43;17.10;;;3.90;99.90;;;;;;5051972;28;20029;-83
2022/04/28 05:40:33;;;;;;;22.70;17.77;;;4.00;99.90;;;;;;5036030;28;20033;-83
2022/04/28 05:45:43;;;;;;;26.53;15.83;;;4.30;99.90;;;;;;5052599;28;20104;-83
2022/04/28 05:48:19;;;;;;;17.23;15.17;;;4.50;99.90;;;;;;5052257;28;20033;-83
2022/04/28 05:50:45;;;;;;;33.47;27.87;;;4.70;99.90;;;;;;5052734;28;20041;-83
2022/04/28 05:53:11;;;;;;;25.93;21.27;;;5.00;99.90;;;;;;5048563;28;20032;-83
2022/04/28 05:55:38;;;;;;;26.40;22.20;;;5.20;99.90;;;;;;5043928;28;20108;-84
2022/04/28 05:58:03;;;;;;;26.87;23.93;;;5.30;99.90;;;;;;5032533;28;20377;-84
2022/04/28 06:00:30;;;;;;;26.93;19.90;;;5.50;99.90;;;;;;5050420;28;20029;-84
2022/04/28 06:02:56;;;;;;;23.00;19.27;;;5.80;99.90;;;;;;5050835;28;20025;-84
2022/04/28 06:05:22;;;;;;;26.63;19.73;;;6.10;99.90;;;;;;5050891;28;20111;-84
2022/04/28 06:07:49;;;;;;;26.77;19.37;;;6.20;99.90;;;;;;5051550;28;20484;-83
2022/04/28 06:10:15;;;;;;;24.80;19.27;;;6.40;99.90;;;;;;5039707;28;20410;-84
2022/04/28 06:12:41;;;;;;;33.07;26.07;;;6.70;99.90;;;;;;5035193;28;20034;-84
2022/04/28 06:15:08;;;;;;;66.27;48.57;;;6.90;99.90;;;;;;5040965;28;20116;-84
2022/04/28 06:17:33;;;;;;;27.70;23.13;;;7.20;99.90;;;;;;5039102;28;20044;-84
2022/04/28 06:19:59;;;;;;;24.80;20.73;;;7.30;99.90;;;;;;5038580;28;20034;-83
2022/04/28 06:22:24;;;;;;;26.87;19.87;;;7.50;99.90;;;;;;5043723;28;20422;-84
2022/04/28 06:24:54;;;;;;;29.00;21.67;;;7.60;99.90;;;;;;5040595;28;20041;-84
2022/04/28 06:27:20;;;;;;;27.33;20.73;;;7.80;99.90;;;;;;5042166;28;20467;-83
2022/04/28 06:29:48;;;;;;;26.60;20.10;;;8.10;99.90;;;;;;5042793;28;20041;-84
2022/04/28 06:32:18;;;;;;;34.53;20.90;;;8.30;99.90;;;;;;5041463;28;20102;-84
2022/04/28 06:34:47;;;;;;;30.77;22.20;;;8.60;99.90;;;;;;5041048;28;20029;-83
2022/04/28 06:37:16;;;;;;;29.17;19.87;;;8.80;99.90;;;;;;5043196;28;20026;-83
2022/04/28 06:39:42;;;;;;;27.30;20.77;;;8.90;99.90;;;;;;5025901;28;20052;-83
2022/04/28 06:42:07;;;;;;;27.17;21.80;;;8.90;99.90;;;;;;5045117;28;20064;-83
2022/04/28 06:44:34;;;;;;;30.17;20.57;;;9.30;99.90;;;;;;5042880;28;20064;-83
2022/04/28 06:46:59;;;;;;;35.67;25.97;;;9.50;99.90;;;;;;5041228;28;20048;-79
2022/04/28 06:49:25;;;;;;;29.03;22.40;;;9.80;99.90;;;;;;5032671;28;20300;-79
2022/04/28 06:51:51;;;;;;;33.17;23.87;;;9.90;99.90;;;;;;5033029;28;20098;-79
2022/04/28 06:54:17;;;;;;;25.97;19.90;;;9.90;99.90;;;;;;5032905;28;20037;-79
2022/04/28 06:56:43;;;;;;;26.93;19.83;;;10.00;99.90;;;;;;5038558;28;20458;-79
2022/04/28 06:59:09;;;;;;;23.43;17.77;;;10.00;99.90;;;;;;5038834;28;20039;-79
2022/04/28 07:01:35;;;;;;;28.80;19.10;;;10.00;99.90;;;;;;5021578;28;20095;-79
2022/04/28 07:04:01;;;;;;;31.50;19.60;;;10.10;99.90;;;;;;5036991;28;20033;-79
2022/04/28 07:06:26;;;;;;;23.60;17.53;;;10.30;99.90;;;;;;5032617;28;20655;-79
2022/04/28 07:08:52;;;;;;;27.30;17.93;;;10.40;99.90;;;;;;5040256;28;20033;-79
2022/04/28 07:11:17;;;;;;;28.67;17.90;;;10.60;99.90;;;;;;5019099;28;20390;-79
2022/04/28 07:13:43;;;;;;;23.13;17.27;;;10.90;99.90;;;;;;5036543;28;20763;-79
2022/04/28 07:16:09;;;;;;;27.20;16.70;;;11.10;99.90;;;;;;5038180;28;20026;-79
2022/04/28 07:18:34;;;;;;;26.70;17.47;;;11.20;99.90;;;;;;5021683;28;20071;-79
2022/04/28 07:21:01;;;;;;;24.40;16.50;;;11.20;99.90;;;;;;5040746;28;20484;-79
2022/04/28 07:23:27;;;;;;;20.37;14.77;;;11.20;99.90;;;;;;5039182;28;20025;-79
2022/04/28 07:25:52;;;;;;;23.50;15.33;;;11.30;99.90;;;;;;5033430;28;20029;-79
2022/04/28 07:28:18;;;;;;;19.13;13.97;;;11.40;99.90;;;;;;5032616;28;20095;-79
2022/04/28 07:30:43;;;;;;;25.53;14.30;;;11.50;99.90;;;;;;5033396;28;20075;-79
2022/04/28 07:33:11;;;;;;;18.93;13.60;;;11.70;99.90;;;;;;5034356;28;20360;-79
2022/04/28 07:35:37;;;;;;;17.10;12.10;;;11.90;99.90;;;;;;5046865;28;20424;-79
2022/04/28 07:38:02;;;;;;;16.90;11.60;;;12.00;99.90;;;;;;5052030;28;20037;-79
2022/04/28 07:40:29;;;;;;;16.90;11.33;;;12.10;99.90;;;;;;5052517;28;20028;-79
2022/04/28 07:42:55;;;;;;;14.63;11.80;;;12.10;99.90;;;;;;5033836;28;20032;-79
2022/04/28 07:45:22;;;;;;;11.83;9.10;;;12.20;99.90;;;;;;5045771;28;20037;-79
2022/04/28 07:47:49;;;;;;;11.23;8.77;;;12.30;99.90;;;;;;5050662;28;20494;-80
2022/04/28 07:50:15;;;;;;;15.00;9.50;;;12.50;99.90;;;;;;5051987;28;20033;-79
2022/04/28 07:52:40;;;;;;;11.32;8.45;;;12.60;99.90;;;;;;5043704;28;20060;-80
2022/04/28 07:55:07;;;;;;;10.38;7.78;;;12.60;99.90;;;;;;5047278;28;20076;-82
2022/04/28 07:57:33;;;;;;;11.73;8.52;;;12.60;99.90;;;;;;5051162;28;20382;-81
2022/04/28 07:59:58;;;;;;;11.70;6.97;;;12.50;99.90;;;;;;5038098;28;20037;-81
2022/04/28 08:02:24;;;;;;;12.93;8.48;;;12.50;99.90;;;;;;5051071;28;20109;-82
2022/04/28 08:04:50;;;;;;;9.40;7.38;;;12.60;99.90;;;;;;5036354;28;20057;-81
2022/04/28 08:07:16;;;;;;;12.30;7.05;;;12.70;99.90;;;;;;5031073;28;20032;-82
2022/04/28 08:09:41;;;;;;;10.90;7.28;;;12.70;99.90;;;;;;5030321;28;20807;-81
2022/04/28 08:12:07;;;;;;;11.13;7.80;;;12.80;99.90;;;;;;5048214;28;20037;-82
2022/04/28 08:14:33;;;;;;;12.77;8.98;;;13.00;99.90;;;;;;5043636;28;20067;-81
2022/04/28 08:16:59;;;;;;;11.23;7.68;;;13.00;99.90;;;;;;5048688;28;20033;-81
2022/04/28 08:19:25;;;;;;;9.43;7.18;;;13.10;99.90;;;;;;5048934;28;20389;-82
2022/04/28 08:21:50;;;;;;;8.43;6.63;;;13.10;99.90;;;;;;5048440;28;20029;-82
2022/04/28 08:24:16;;;;;;;10.45;6.82;;;13.20;99.90;;;;;;5049339;28;20235;-82
2022/04/28 08:26:42;;;;;;;9.40;7.30;;;13.30;99.90;;;;;;5036085;28;20052;-81
2022/04/28 08:29:08;;;;;;;10.80;7.60;;;13.40;99.90;;;;;;5048313;28;20086;-82
2022/04/28 08:31:34;;;;;;;9.43;7.32;;;13.40;99.90;;;;;;5048361;28;20052;-82
2022/04/28 08:34:00;;;;;;;8.98;7.00;;;13.40;99.90;;;;;;5047972;28;20617;-82
2022/04/28 08:36:25;;;;;;;10.80;6.70;;;13.60;99.90;;;;;;5029882;28;20452;-82
2022/04/28 08:38:52;;;;;;;10.05;6.50;;;13.80;99.90;;;;;;5042454;28;20025;-82
2022/04/28 08:41:45;;;;;;;13.80;6.93;;;13.80;99.90;;;;;;5026614;28;20055;-82
2022/04/28 08:44:29;;;;;;;10.32;7.30;;;13.90;99.90;;;;;;5040636;28;20043;-82
2022/04/28 08:46:56;;;;;;;9.20;6.80;;;13.80;99.90;;;;;;5045067;28;20025;-82
2022/04/28 08:49:27;;;;;;;10.65;6.97;;;13.80;99.90;;;;;;5045520;28;20082;-82
2022/04/28 08:51:58;;;;;;;9.50;7.78;;;13.90;99.90;;;;;;5044282;28;20074;-82
2022/04/28 08:54:26;;;;;;;7.50;6.20;;;13.90;99.90;;;;;;5044569;28;20033;-81
2022/04/28 08:56:53;;;;;;;14.68;7.68;;;14.00;99.90;;;;;;5023869;28;20029;-82
2022/04/28 08:59:24;;;;;;;11.93;7.63;;;14.30;99.90;;;;;;5027732;28;20389;-82
2022/04/28 09:01:53;;;;;;;9.65;6.80;;;14.30;99.90;;;;;;5045388;28;20033;-80
2022/04/28 09:04:19;;;;;;;11.52;6.70;;;14.40;99.90;;;;;;5040204;28;20036;-80
2022/04/28 09:06:48;;;;;;;10.07;6.30;;;14.40;99.90;;;;;;5043612;28;20771;-80
2022/04/28 09:09:16;;;;;;;7.15;5.82;;;14.50;99.90;;;;;;5047525;28;20025;-80
2022/04/28 09:11:43;;;;;;;7.45;6.00;;;15.00;99.90;;;;;;5039977;28;20539;-79
2022/04/28 09:14:14;;;;;;;9.95;5.80;;;15.20;99.90;;;;;;5040064;28;20029;-78
2022/04/28 09:16:59;;;;;;;6.93;5.40;;;15.50;99.90;;;;;;5046800;28;20041;-79
2022/04/28 09:19:27;;;;;;;8.18;6.53;;;15.80;99.90;;;;;;5046754;28;20680;-79
2022/04/28 09:21:56;;;;;;;6.53;5.80;;;16.00;99.90;;;;;;5046855;28;20033;-79
2022/04/28 09:24:23;;;;;;;8.23;6.00;;;16.30;99.90;;;;;;5035203;28;20034;-80
2022/04/28 09:26:51;;;;;;;9.98;5.70;;;16.50;99.90;;;;;;5039559;28;20033;-79
2022/04/28 09:29:18;;;;;;;7.43;5.30;;;16.90;99.90;;;;;;5046705;28;20120;-79
2022/04/28 09:31:46;;;;;;;7.50;4.93;;;17.20;99.90;;;;;;5046176;28;20033;-80
2022/04/28 09:34:14;;;;;;;9.10;4.90;;;16.90;97.30;;;;;;5039953;28;20572;-79
2022/04/28 09:36:41;;;;;;;7.53;5.10;;;16.40;96.40;;;;;;5042560;28;20037;-80
2022/04/28 09:39:11;;;;;;;6.60;4.82;;;16.40;99.90;;;;;;5032448;28;20033;-79
2022/04/28 09:44:23;;;;;;;7.57;4.88;;;16.90;93.70;;;;;;5027114;28;20129;-80
2022/04/28 09:46:50;;;;;;;6.88;5.57;;;17.20;95.80;;;;;;5019173;28;20512;-80
2022/04/28 09:49:24;;;;;;;8.10;6.13;;;17.50;95.10;;;;;;5026437;28;20033;-80
2022/04/28 09:51:58;;;;;;;8.23;6.43;;;17.80;95.90;;;;;;5029072;28;20025;-71
2022/04/28 09:54:27;;;;;;;8.40;5.03;;;18.10;95.80;;;;;;5044275;28;20069;-80
2022/04/28 09:56:52;;;;;;;6.50;4.57;;;18.20;95.70;;;;;;5053894;28;20052;-80
2022/04/28 09:59:20;;;;;;;6.40;5.13;;;18.60;93.90;;;;;;5054181;28;20456;-80
2022/04/28 10:01:46;;;;;;;8.63;5.80;;;18.90;92.40;;;;;;5054730;28;20055;-80
2022/04/28 10:04:12;;;;;;;8.10;5.88;;;19.00;92.30;;;;;;5057832;28;20021;-80
2022/04/28 10:06:38;;;;;;;6.68;5.10;;;19.40;90.30;;;;;;5042218;28;20881;-80
2022/04/28 10:09:14;;;;;;;8.63;6.07;;;19.50;89.60;;;;;;5059828;28;20546;-80
2022/04/28 10:11:41;;;;;;;9.15;5.72;;;19.50;88.70;;;;;;5033804;28;20045;-79
2022/04/28 10:14:09;;;;;;;5.93;5.10;;;19.20;86.50;;;;;;5052327;28;20021;-80
2022/04/28 10:16:35;;;;;;;5.90;4.70;;;18.60;83.80;;;;;;5064329;28;20056;-80
2022/04/28 10:19:29;;;;;;;7.43;5.00;;;18.30;89.00;;;;;;5064953;28;20033;-80
2022/04/28 10:22:17;;;;;;;7.32;5.03;;;18.20;87.10;;;;;;5065495;28;20116;-80
2022/04/28 10:33:19;;;;;;;6.53;3.97;;;18.40;81.10;;;;;;5064853;28;20061;-80
2022/04/28 10:35:54;;;;;;;7.30;4.65;;;18.50;82.40;;;;;;5063859;28;20075;-80
2022/04/28 10:38:21;;;;;;;;;;;18.50;83.00;;;;;;5065271;28;20081;-80
2022/04/28 10:41:04;;;;;;;6.82;4.93;;;18.80;79.90;;;;;;5064267;28;19904;-80
2022/04/28 10:43:33;;;;;;;8.50;4.28;;;18.30;79.80;;;;;;5067102;28;20021;-80
2022/04/28 10:46:01;;;;;;;7.20;4.32;;;18.30;86.10;;;;;;5065698;28;20029;-80
2022/04/28 10:48:30;;;;;;;6.68;4.53;;;18.50;78.10;;;;;;5067689;28;20135;-80
2022/04/28 10:51:11;;;;;;;5.30;4.28;;;18.50;79.50;;;;;;5060526;28;20037;-80
2022/04/28 10:53:56;;;;;;;5.78;4.00;;;18.50;79.90;;;;;;5063214;28;20094;-81
2022/04/28 10:56:23;;;;;;;5.20;3.90;;;18.60;76.80;;;;;;5058102;28;20025;-81
2022/04/28 10:58:49;;;;;;;4.95;4.10;;;19.10;76.50;;;;;;5063596;28;20097;-80
2022/04/28 11:01:27;;;;;;;5.43;3.78;;;19.50;75.10;;;;;;5041401;28;20469;-80
2022/04/28 11:03:58;;;;;;;7.22;3.90;;;19.90;73.10;;;;;;5046861;28;20036;-80
2022/04/28 11:06:30;;;;;;;7.60;3.35;;;19.80;73.30;;;;;;5034391;28;21488;-80
2022/04/28 11:08:59;;;;;;;7.65;4.70;;;19.70;73.80;;;;;;5035740;28;20087;-79
2022/04/28 11:11:29;;;;;;;6.07;4.28;;;19.70;74.00;;;;;;5017939;28;20025;-79
2022/04/28 11:13:58;;;;;;;5.30;4.10;;;20.00;70.90;;;;;;5036160;28;20458;-79
2022/04/28 11:16:26;;;;;;;5.90;4.20;;;20.40;70.30;;;;;;5035620;28;20051;-79
2022/04/28 11:18:53;;;;;;;5.13;3.95;;;20.30;66.50;;;;;;5035151;28;20113;-79
2022/04/28 11:21:20;;;;;;;5.53;3.55;;;20.50;71.30;;;;;;5035495;28;20358;-79
2022/04/28 11:23:48;;;;;;;6.65;3.63;;;20.60;69.60;;;;;;5017649;28;20029;-79
2022/04/28 11:26:14;;;;;;;5.90;3.25;;;20.60;69.90;;;;;;5035657;28;20097;-79
2022/04/28 11:28:41;;;;;;;5.85;3.33;;;20.50;68.90;;;;;;5035306;28;20029;-78
2022/04/28 11:31:12;;;;;;;10.00;3.63;;;20.60;70.00;;;;;;5035334;28;20026;-80
2022/04/28 11:33:49;;;;;;;11.05;3.30;;;20.20;65.70;;;;;;5035495;28;20049;-80
2022/04/28 11:36:16;;;;;;;5.63;3.55;;;20.50;67.20;;;;;;5035382;28;20306;-79
2022/04/28 11:38:58;;;;;;;6.72;3.90;;;20.90;66.60;;;;;;5017214;28;20032;-79
2022/04/28 11:41:35;;;;;;;4.63;3.55;;;21.10;62.80;;;;;;5050382;28;20358;-78
2022/04/28 11:44:06;;;;;;;5.50;3.42;;;20.60;64.80;;;;;;5018304;28;20144;-79
2022/04/28 11:46:34;;;;;;;5.10;3.40;;;20.60;68.00;;;;;;5035311;28;20501;-79
2022/04/28 11:48:59;;;;;;;4.28;3.88;;;20.50;65.30;;;;;;5035228;28;20021;-79
2022/04/28 11:51:25;;;;;;;3.65;3.30;;;20.50;67.50;;;;;;5034896;28;20030;-79
2022/04/28 11:53:53;;;;;;;4.45;3.38;;;20.60;68.70;;;;;;5035057;28;20038;-79
2022/04/28 11:56:28;;;;;;;8.25;3.92;;;20.70;67.10;;;;;;5034990;28;20021;-79
2022/04/28 11:58:54;;;;;;;6.55;4.20;;;20.80;62.40;;;;;;5034536;28;20025;-79
2022/04/28 12:01:21;;;;;;;5.22;3.65;;;21.00;66.80;;;;;;5034789;28;20064;-79
2022/04/28 12:03:53;;;;;;;5.00;3.35;;;21.10;62.50;;;;;;5034887;28;20049;-79
2022/04/28 12:06:20;;;;;;;5.88;3.63;;;21.20;63.00;;;;;;5034540;28;20494;-80
2022/04/28 12:08:53;;;;;;;6.03;3.60;;;21.30;63.50;;;;;;5035243;28;20354;-79
2022/04/28 12:14:22;;;;;;;5.18;4.32;;;21.00;65.10;;;;;;5034772;28;20041;-79
2022/04/28 12:20:10;;;;;;;8.85;4.05;;;20.90;64.80;;;;;;5034679;28;20053;-79
2022/04/28 12:22:40;;;;;;;6.28;4.25;;;20.90;64.30;;;;;;5027089;28;20053;-79
2022/04/28 12:25:08;;;;;;;5.03;3.45;;;21.00;64.80;;;;;;5034302;28;20087;-79
2022/04/28 12:27:43;;;;;;;4.72;3.78;;;20.70;62.40;;;;;;5034972;28;20025;-79
2022/04/28 12:30:09;;;;;;;4.28;3.65;;;20.70;62.50;;;;;;5033078;28;20483;-79
2022/04/28 12:33:03;;;;;;;6.97;4.22;;;20.40;63.40;;;;;;5034043;28;20389;-79
2022/04/28 12:35:32;;;;;;;5.90;4.10;;;20.20;63.60;;;;;;5032530;28;20043;-79
2022/04/28 12:38:01;;;;;;;5.95;3.75;;;20.50;61.80;;;;;;5034169;28;20037;-80
2022/04/28 12:40:39;;;;;;;4.57;3.60;;;20.50;62.80;;;;;;5034525;28;20025;-80
2022/04/28 12:43:05;;;;;;;7.43;3.88;;;20.70;62.30;;;;;;5033993;28;20350;-79
2022/04/28 12:45:56;;;;;;;5.38;3.85;;;21.00;60.50;;;;;;5033950;28;20119;-79
2022/04/28 12:48:31;;;;;;;7.55;5.30;;;21.20;59.50;;;;;;5034168;28;20021;-79
2022/04/28 12:51:17;;;;;;;5.50;3.55;;;21.20;62.40;;;;;;5033830;28;20105;-79
2022/04/28 12:53:48;;;;;;;6.28;4.35;;;21.20;61.20;;;;;;5034072;28;20022;-79
2022/04/28 12:56:16;;;;;;;4.57;3.53;;;21.20;60.80;;;;;;5033797;28;20083;-79
2022/04/28 12:58:48;;;;;;;8.65;4.28;;;21.30;63.00;;;;;;5033589;28;20025;-79
2022/04/28 13:01:17;;;;;;;6.32;4.00;;;21.40;58.90;;;;;;5033894;28;20392;-79
2022/04/28 13:03:56;;;;;;;5.40;3.60;;;21.40;58.30;;;;;;5033745;28;20025;-79
2022/04/28 13:06:26;;;;;;;6.78;3.50;;;21.30;61.10;;;;;;5033545;28;20600;-79
2022/04/28 13:08:52;;;;;;;6.95;3.70;;;21.10;60.90;;;;;;5033896;28;20021;-79
2022/04/28 13:11:24;;;;;;;4.70;3.45;;;21.00;60.00;;;;;;5033690;28;20045;-79
2022/04/28 13:13:51;;;;;;;5.63;3.25;;;21.40;58.10;;;;;;5033465;28;20025;-79